sensor_id;sensor_type;location;lat;lon;timestamp;pressure;altitude;pressure_sealevel;temperature;humidity
43125;BME280;49182;50.788;7.318;2023-05-22T00:01:45;100605.69;;;14.94;98.60
43125;BME280;49182;50.788;7.318;2023-05-22T00:04:12;100578.09;;;14.79;98.61
43125;BME280;49182;50.788;7.318;2023-05-22T00:06:41;100595.06;;;14.86;98.58
43125;BME280;49182;50.788;7.318;2023-05-22T00:09:08;100598.38;;;14.88;98.61
43125;BME280;49182;50.788;7.318;2023-05-22T00:11:34;100594.72;;;14.89;99.34
43125;BME280;49182;50.788;7.318;2023-05-22T00:14:01;100590.25;;;14.89;99.52
43125;BME280;49182;50.788;7.318;2023-05-22T00:16:28;100589.75;;;14.86;99.57
43125;BME280;49182;50.788;7.318;2023-05-22T00:18:56;100585.44;;;14.85;99.23
43125;BME280;49182;50.788;7.318;2023-05-22T00:21:23;100585.91;;;14.80;98.78
43125;BME280;49182;50.788;7.318;2023-05-22T00:23:49;100579.59;;;14.73;98.89
43125;BME280;49182;50.788;7.318;2023-05-22T00:26:16;100581.56;;;14.71;99.07
43125;BME280;49182;50.788;7.318;2023-05-22T00:28:42;100573.94;;;14.68;98.90
43125;BME280;49182;50.788;7.318;2023-05-22T00:31:09;100573.25;;;14.66;98.71
43125;BME280;49182;50.788;7.318;2023-05-22T00:33:36;100577.72;;;14.66;98.62
43125;BME280;49182;50.788;7.318;2023-05-22T00:36:04;100573.56;;;14.63;98.51
43125;BME280;49182;50.788;7.318;2023-05-22T00:38:32;100578.38;;;14.60;99.51
43125;BME280;49182;50.788;7.318;2023-05-22T00:40:59;100576.03;;;14.56;99.35
43125;BME280;49182;50.788;7.318;2023-05-22T00:43:26;100570.06;;;14.54;99.54
43125;BME280;49182;50.788;7.318;2023-05-22T00:45:53;100583.97;;;14.48;99.28
43125;BME280;49182;50.788;7.318;2023-05-22T00:48:20;100574.66;;;14.44;99.54
43125;BME280;49182;50.788;7.318;2023-05-22T00:50:47;100582.13;;;14.41;99.75
43125;BME280;49182;50.788;7.318;2023-05-22T00:53:17;100587.13;;;14.44;100.00
43125;BME280;49182;50.788;7.318;2023-05-22T00:55:46;100575.97;;;14.40;100.00
43125;BME280;49182;50.788;7.318;2023-05-22T00:58:16;100575.28;;;14.38;100.00
43125;BME280;49182;50.788;7.318;2023-05-22T01:00:43;100580.59;;;14.38;100.00
43125;BME280;49182;50.788;7.318;2023-05-22T01:03:10;100579.78;;;14.38;99.98
43125;BME280;49182;50.788;7.318;2023-05-22T01:05:38;100583.84;;;14.32;99.51
43125;BME280;49182;50.788;7.318;2023-05-22T01:08:07;100575.38;;;14.29;99.31
43125;BME280;49182;50.788;7.318;2023-05-22T01:10:36;100584.69;;;14.25;99.35
43125;BME280;49182;50.788;7.318;2023-05-22T01:13:11;100576.19;;;14.21;99.38
43125;BME280;49182;50.788;7.318;2023-05-22T01:15:43;100584.28;;;14.19;99.55
43125;BME280;49182;50.788;7.318;2023-05-22T01:18:17;100579.31;;;14.16;99.65
43125;BME280;49182;50.788;7.318;2023-05-22T01:20:51;100581.28;;;14.14;99.98
43125;BME280;49182;50.788;7.318;2023-05-22T01:29:51;100580.22;;;13.99;100.00
43125;BME280;49182;50.788;7.318;2023-05-22T01:32:23;100569.53;;;13.91;100.00
43125;BME280;49182;50.788;7.318;2023-05-22T01:34:53;100563.88;;;13.86;100.00
43125;BME280;49182;50.788;7.318;2023-05-22T01:37:20;100562.34;;;13.84;100.00
43125;BME280;49182;50.788;7.318;2023-05-22T01:39:51;100580.16;;;13.91;100.00
43125;BME280;49182;50.788;7.318;2023-05-22T01:42:18;100584.63;;;13.91;100.00
43125;BME280;49182;50.788;7.318;2023-05-22T01:44:46;100583.16;;;13.88;100.00
43125;BME280;49182;50.788;7.318;2023-05-22T01:47:14;100582.09;;;13.81;100.00
43125;BME280;49182;50.788;7.318;2023-05-22T01:49:42;100575.97;;;13.81;100.00
43125;BME280;49182;50.788;7.318;2023-05-22T01:52:13;100583.22;;;13.78;100.00
43125;BME280;49182;50.788;7.318;2023-05-22T01:54:43;100571.56;;;13.71;100.00
43125;BME280;49182;50.788;7.318;2023-05-22T01:57:16;100573.25;;;13.72;100.00
43125;BME280;49182;50.788;7.318;2023-05-22T01:59:46;100573.59;;;13.77;100.00
43125;BME280;49182;50.788;7.318;2023-05-22T02:02:16;100545.91;;;13.54;100.00
43125;BME280;49182;50.788;7.318;2023-05-22T02:04:49;100574.41;;;13.70;100.00
43125;BME280;49182;50.788;7.318;2023-05-22T02:07:18;100571.69;;;13.62;100.00
43125;BME280;49182;50.788;7.318;2023-05-22T02:09:47;100581.31;;;13.63;100.00
43125;BME280;49182;50.788;7.318;2023-05-22T02:12:16;100584.09;;;13.61;100.00
43125;BME280;49182;50.788;7.318;2023-05-22T02:14:43;100552.31;;;13.44;100.00
43125;BME280;49182;50.788;7.318;2023-05-22T02:17:10;100580.63;;;13.61;100.00
43125;BME280;49182;50.788;7.318;2023-05-22T02:19:36;100577.13;;;13.60;100.00
43125;BME280;49182;50.788;7.318;2023-05-22T02:22:05;100582.81;;;13.65;100.00
43125;BME280;49182;50.788;7.318;2023-05-22T02:24:35;100590.75;;;13.65;100.00
43125;BME280;49182;50.788;7.318;2023-05-22T02:27:02;100578.81;;;13.61;100.00
43125;BME280;49182;50.788;7.318;2023-05-22T02:29:28;100570.31;;;13.58;100.00
43125;BME280;49182;50.788;7.318;2023-05-22T02:31:55;100571.47;;;13.55;100.00
43125;BME280;49182;50.788;7.318;2023-05-22T02:34:24;100575.78;;;13.56;100.00
43125;BME280;49182;50.788;7.318;2023-05-22T02:36:51;100567.97;;;13.55;100.00
43125;BME280;49182;50.788;7.318;2023-05-22T02:39:19;100574.13;;;13.55;100.00
43125;BME280;49182;50.788;7.318;2023-05-22T02:41:46;100571.31;;;13.57;100.00
43125;BME280;49182;50.788;7.318;2023-05-22T02:44:12;100565.47;;;13.53;100.00
43125;BME280;49182;50.788;7.318;2023-05-22T02:46:39;100569.28;;;13.51;100.00
43125;BME280;49182;50.788;7.318;2023-05-22T02:49:06;100571.09;;;13.50;100.00
43125;BME280;49182;50.788;7.318;2023-05-22T02:51:33;100577.25;;;13.51;100.00
43125;BME280;49182;50.788;7.318;2023-05-22T02:53:59;100573.75;;;13.50;100.00
43125;BME280;49182;50.788;7.318;2023-05-22T02:56:27;100572.91;;;13.50;100.00
43125;BME280;49182;50.788;7.318;2023-05-22T02:58:54;100567.38;;;13.43;100.00
43125;BME280;49182;50.788;7.318;2023-05-22T03:01:20;100559.81;;;13.30;100.00
43125;BME280;49182;50.788;7.318;2023-05-22T03:03:47;100567.47;;;13.33;100.00
43125;BME280;49182;50.788;7.318;2023-05-22T03:06:14;100564.97;;;13.32;100.00
43125;BME280;49182;50.788;7.318;2023-05-22T03:08:41;100545.84;;;13.20;100.00
43125;BME280;49182;50.788;7.318;2023-05-22T03:11:08;100562.16;;;13.33;100.00
43125;BME280;49182;50.788;7.318;2023-05-22T03:13:36;100570.81;;;13.35;100.00
43125;BME280;49182;50.788;7.318;2023-05-22T03:16:03;100566.34;;;13.36;100.00
43125;BME280;49182;50.788;7.318;2023-05-22T03:18:30;100565.34;;;13.37;100.00
43125;BME280;49182;50.788;7.318;2023-05-22T03:20:57;100567.53;;;13.42;100.00
43125;BME280;49182;50.788;7.318;2023-05-22T03:23:24;100569.69;;;13.38;100.00
43125;BME280;49182;50.788;7.318;2023-05-22T03:25:51;100566.47;;;13.34;100.00
43125;BME280;49182;50.788;7.318;2023-05-22T03:28:19;100567.63;;;13.32;100.00
43125;BME280;49182;50.788;7.318;2023-05-22T03:30:47;100551.78;;;13.22;100.00
43125;BME280;49182;50.788;7.318;2023-05-22T03:33:19;100559.59;;;13.24;100.00
43125;BME280;49182;50.788;7.318;2023-05-22T03:35:46;100565.13;;;13.30;100.00
43125;BME280;49182;50.788;7.318;2023-05-22T03:38:12;100556.84;;;13.33;100.00
43125;BME280;49182;50.788;7.318;2023-05-22T03:40:39;100550.88;;;13.31;100.00
43125;BME280;49182;50.788;7.318;2023-05-22T03:43:07;100565.97;;;13.31;100.00
43125;BME280;49182;50.788;7.318;2023-05-22T03:45:34;100567.25;;;13.27;100.00
43125;BME280;49182;50.788;7.318;2023-05-22T03:48:03;100561.75;;;13.20;100.00
43125;BME280;49182;50.788;7.318;2023-05-22T03:50:30;100572.03;;;13.23;100.00
43125;BME280;49182;50.788;7.318;2023-05-22T03:52:57;100572.72;;;13.25;100.00
43125;BME280;49182;50.788;7.318;2023-05-22T03:55:23;100558.47;;;13.26;100.00
43125;BME280;49182;50.788;7.318;2023-05-22T03:57:50;100570.44;;;13.30;100.00
43125;BME280;49182;50.788;7.318;2023-05-22T04:00:17;100569.44;;;13.31;100.00
43125;BME280;49182;50.788;7.318;2023-05-22T04:02:44;100572.47;;;13.36;100.00
43125;BME280;49182;50.788;7.318;2023-05-22T04:05:13;100569.13;;;13.34;100.00
43125;BME280;49182;50.788;7.318;2023-05-22T04:07:40;100568.28;;;13.34;100.00
43125;BME280;49182;50.788;7.318;2023-05-22T04:10:07;100564.97;;;13.32;100.00
43125;BME280;49182;50.788;7.318;2023-05-22T04:12:33;100576.56;;;13.31;100.00
43125;BME280;49182;50.788;7.318;2023-05-22T04:15:00;100568.47;;;13.32;100.00
43125;BME280;49182;50.788;7.318;2023-05-22T04:17:30;100579.06;;;13.32;100.00
43125;BME280;49182;50.788;7.318;2023-05-22T04:19:57;100582.56;;;13.33;100.00
43125;BME280;49182;50.788;7.318;2023-05-22T04:22:25;100575.13;;;13.36;100.00
43125;BME280;49182;50.788;7.318;2023-05-22T04:24:52;100586.09;;;13.42;100.00
43125;BME280;49182;50.788;7.318;2023-05-22T04:27:19;100562.47;;;13.30;100.00
43125;BME280;49182;50.788;7.318;2023-05-22T04:29:46;100588.50;;;13.53;100.00
43125;BME280;49182;50.788;7.318;2023-05-22T04:32:12;100586.22;;;13.58;100.00
43125;BME280;49182;50.788;7.318;2023-05-22T04:34:39;100587.59;;;13.62;100.00
43125;BME280;49182;50.788;7.318;2023-05-22T04:37:05;100588.66;;;13.69;100.00
43125;BME280;49182;50.788;7.318;2023-05-22T04:39:33;100542.53;;;13.44;100.00
43125;BME280;49182;50.788;7.318;2023-05-22T04:42:00;100603.47;;;13.80;100.00
43125;BME280;49182;50.788;7.318;2023-05-22T04:44:27;100604.31;;;13.80;100.00
43125;BME280;49182;50.788;7.318;2023-05-22T04:46:53;100596.34;;;13.80;100.00
43125;BME280;49182;50.788;7.318;2023-05-22T04:49:20;100602.16;;;13.84;100.00
43125;BME280;49182;50.788;7.318;2023-05-22T04:51:47;100617.03;;;13.94;100.00
43125;BME280;49182;50.788;7.318;2023-05-22T04:54:13;100619.50;;;13.96;100.00
43125;BME280;49182;50.788;7.318;2023-05-22T04:56:41;100616.41;;;14.00;100.00
43125;BME280;49182;50.788;7.318;2023-05-22T04:59:08;100624.56;;;14.07;100.00
43125;BME280;49182;50.788;7.318;2023-05-22T05:01:37;100611.81;;;14.10;100.00
43125;BME280;49182;50.788;7.318;2023-05-22T05:04:04;100575.69;;;13.92;100.00
43125;BME280;49182;50.788;7.318;2023-05-22T05:06:30;100612.53;;;14.21;100.00
43125;BME280;49182;50.788;7.318;2023-05-22T05:08:57;100609.72;;;14.22;100.00
43125;BME280;49182;50.788;7.318;2023-05-22T05:11:24;100615.59;;;14.34;100.00
43125;BME280;49182;50.788;7.318;2023-05-22T05:13:52;100610.66;;;14.39;100.00
43125;BME280;49182;50.788;7.318;2023-05-22T05:16:18;100600.63;;;14.33;100.00
43125;BME280;49182;50.788;7.318;2023-05-22T05:18:45;100615.66;;;14.42;100.00
43125;BME280;49182;50.788;7.318;2023-05-22T05:21:12;100617.69;;;14.48;100.00
43125;BME280;49182;50.788;7.318;2023-05-22T05:23:39;100600.72;;;14.41;100.00
43125;BME280;49182;50.788;7.318;2023-05-22T05:26:06;100609.22;;;14.52;100.00
43125;BME280;49182;50.788;7.318;2023-05-22T05:28:33;100609.94;;;14.63;100.00
43125;BME280;49182;50.788;7.318;2023-05-22T05:31:01;100615.75;;;14.66;100.00
43125;BME280;49182;50.788;7.318;2023-05-22T05:33:46;100621.97;;;14.75;100.00
43125;BME280;49182;50.788;7.318;2023-05-22T05:36:24;100604.00;;;14.77;100.00
43125;BME280;49182;50.788;7.318;2023-05-22T05:38:51;100609.84;;;14.88;100.00
43125;BME280;49182;50.788;7.318;2023-05-22T05:41:18;100608.22;;;14.95;100.00
43125;BME280;49182;50.788;7.318;2023-05-22T05:43:49;100613.41;;;15.05;100.00
43125;BME280;49182;50.788;7.318;2023-05-22T05:46:18;100607.44;;;15.11;100.00
43125;BME280;49182;50.788;7.318;2023-05-22T05:48:46;100611.59;;;15.22;100.00
43125;BME280;49182;50.788;7.318;2023-05-22T05:51:13;100616.44;;;15.34;100.00
43125;BME280;49182;50.788;7.318;2023-05-22T05:53:41;100614.44;;;15.45;100.00
43125;BME280;49182;50.788;7.318;2023-05-22T05:56:08;100622.09;;;15.56;100.00
43125;BME280;49182;50.788;7.318;2023-05-22T05:58:36;100627.13;;;15.67;100.00
43125;BME280;49182;50.788;7.318;2023-05-22T06:01:32;100606.16;;;15.64;100.00
43125;BME280;49182;50.788;7.318;2023-05-22T06:04:00;100622.44;;;15.85;100.00
43125;BME280;49182;50.788;7.318;2023-05-22T06:06:30;100616.44;;;15.91;100.00
43125;BME280;49182;50.788;7.318;2023-05-22T06:09:17;100633.91;;;16.10;100.00
43125;BME280;49182;50.788;7.318;2023-05-22T06:12:08;100630.88;;;16.21;100.00
43125;BME280;49182;50.788;7.318;2023-05-22T06:14:35;100632.34;;;16.32;100.00
43125;BME280;49182;50.788;7.318;2023-05-22T06:17:03;100630.13;;;16.43;100.00
43125;BME280;49182;50.788;7.318;2023-05-22T06:19:30;100639.94;;;16.51;100.00
43125;BME280;49182;50.788;7.318;2023-05-22T06:21:57;100636.75;;;16.64;100.00
43125;BME280;49182;50.788;7.318;2023-05-22T06:24:24;100637.03;;;16.77;100.00
43125;BME280;49182;50.788;7.318;2023-05-22T06:26:50;100634.00;;;16.88;100.00
43125;BME280;49182;50.788;7.318;2023-05-22T06:29:17;100637.59;;;17.03;100.00
43125;BME280;49182;50.788;7.318;2023-05-22T06:31:45;100638.66;;;17.17;100.00
43125;BME280;49182;50.788;7.318;2023-05-22T06:34:16;100641.41;;;17.31;100.00
43125;BME280;49182;50.788;7.318;2023-05-22T06:36:43;100642.00;;;17.42;99.39
43125;BME280;49182;50.788;7.318;2023-05-22T06:39:10;100644.72;;;17.56;98.89
43125;BME280;49182;50.788;7.318;2023-05-22T06:42:02;100640.47;;;17.70;98.25
43125;BME280;49182;50.788;7.318;2023-05-22T06:44:49;100640.72;;;17.83;96.85
43125;BME280;49182;50.788;7.318;2023-05-22T06:47:15;100644.13;;;17.92;96.08
43125;BME280;49182;50.788;7.318;2023-05-22T06:49:44;100645.22;;;17.97;95.09
43125;BME280;49182;50.788;7.318;2023-05-22T06:52:10;100646.16;;;18.04;94.86
43125;BME280;49182;50.788;7.318;2023-05-22T06:54:37;100651.44;;;18.12;94.32
43125;BME280;49182;50.788;7.318;2023-05-22T06:57:04;100663.91;;;18.20;94.16
43125;BME280;49182;50.788;7.318;2023-05-22T06:59:31;100654.41;;;18.17;93.47
43125;BME280;49182;50.788;7.318;2023-05-22T07:02:00;100661.13;;;18.28;93.09
43125;BME280;49182;50.788;7.318;2023-05-22T07:04:58;100660.41;;;18.34;93.08
43125;BME280;49182;50.788;7.318;2023-05-22T07:07:32;100672.84;;;18.42;91.94
43125;BME280;49182;50.788;7.318;2023-05-22T07:10:00;100668.50;;;18.41;92.03
43125;BME280;49182;50.788;7.318;2023-05-22T07:12:28;100672.50;;;18.45;91.30
43125;BME280;49182;50.788;7.318;2023-05-22T07:14:55;100671.34;;;18.39;90.49
43125;BME280;49182;50.788;7.318;2023-05-22T07:17:24;100673.69;;;18.42;90.64
43125;BME280;49182;50.788;7.318;2023-05-22T07:19:51;100670.56;;;18.39;90.68
43125;BME280;49182;50.788;7.318;2023-05-22T07:22:19;100669.91;;;18.37;90.86
43125;BME280;49182;50.788;7.318;2023-05-22T07:24:47;100679.69;;;18.44;90.65
43125;BME280;49182;50.788;7.318;2023-05-22T07:27:16;100678.13;;;18.50;90.83
43125;BME280;49182;50.788;7.318;2023-05-22T07:29:45;100676.41;;;18.57;90.20
43125;BME280;49182;50.788;7.318;2023-05-22T07:32:12;100674.63;;;18.64;88.93
43125;BME280;49182;50.788;7.318;2023-05-22T07:34:40;100678.78;;;18.67;88.91
43125;BME280;49182;50.788;7.318;2023-05-22T07:37:09;100686.25;;;18.71;89.50
43125;BME280;49182;50.788;7.318;2023-05-22T07:39:38;100687.34;;;18.77;88.75
43125;BME280;49182;50.788;7.318;2023-05-22T07:42:06;100682.00;;;18.77;88.06
43125;BME280;49182;50.788;7.318;2023-05-22T07:44:39;100688.09;;;18.85;87.19
43125;BME280;49182;50.788;7.318;2023-05-22T07:47:06;100686.78;;;18.96;86.29
43125;BME280;49182;50.788;7.318;2023-05-22T07:49:33;100683.94;;;18.97;87.40
43125;BME280;49182;50.788;7.318;2023-05-22T07:52:00;100685.19;;;19.02;87.94
43125;BME280;49182;50.788;7.318;2023-05-22T07:54:27;100691.09;;;19.12;87.76
43125;BME280;49182;50.788;7.318;2023-05-22T07:56:55;100689.13;;;19.20;87.32
43125;BME280;49182;50.788;7.318;2023-05-22T07:59:24;100679.25;;;19.21;86.06
43125;BME280;49182;50.788;7.318;2023-05-22T08:01:55;100692.16;;;19.32;86.19
43125;BME280;49182;50.788;7.318;2023-05-22T08:04:24;100696.22;;;19.28;85.03
43125;BME280;49182;50.788;7.318;2023-05-22T08:06:50;100689.75;;;19.37;84.84
43125;BME280;49182;50.788;7.318;2023-05-22T08:09:17;100692.28;;;19.45;84.32
43125;BME280;49182;50.788;7.318;2023-05-22T08:11:44;100689.41;;;19.61;83.28
43125;BME280;49182;50.788;7.318;2023-05-22T08:14:12;100683.91;;;19.69;81.54
43125;BME280;49182;50.788;7.318;2023-05-22T08:16:38;100683.53;;;19.72;81.73
43125;BME280;49182;50.788;7.318;2023-05-22T08:19:05;100686.59;;;19.91;81.41
43125;BME280;49182;50.788;7.318;2023-05-22T08:21:32;100674.84;;;19.92;80.06
43125;BME280;49182;50.788;7.318;2023-05-22T08:23:59;100689.81;;;20.07;79.45
43125;BME280;49182;50.788;7.318;2023-05-22T08:26:27;100686.41;;;20.20;79.06
43125;BME280;49182;50.788;7.318;2023-05-22T08:28:57;100689.47;;;20.38;79.07
43125;BME280;49182;50.788;7.318;2023-05-22T08:31:24;100678.13;;;20.36;77.37
43125;BME280;49182;50.788;7.318;2023-05-22T08:33:51;100677.56;;;20.47;77.82
43125;BME280;49182;50.788;7.318;2023-05-22T08:36:18;100683.34;;;20.51;75.82
43125;BME280;49182;50.788;7.318;2023-05-22T08:38:45;100677.69;;;20.67;76.05
43125;BME280;49182;50.788;7.318;2023-05-22T08:41:11;100677.97;;;20.85;74.46
43125;BME280;49182;50.788;7.318;2023-05-22T08:43:39;100681.31;;;20.94;74.71
43125;BME280;49182;50.788;7.318;2023-05-22T08:46:07;100682.59;;;20.98;73.12
43125;BME280;49182;50.788;7.318;2023-05-22T08:48:37;100667.00;;;20.74;73.26
43125;BME280;49182;50.788;7.318;2023-05-22T08:51:04;100682.38;;;21.06;73.33
43125;BME280;49182;50.788;7.318;2023-05-22T08:53:33;100687.84;;;21.19;73.76
43125;BME280;49182;50.788;7.318;2023-05-22T08:56:01;100682.28;;;21.21;71.55
43125;BME280;49182;50.788;7.318;2023-05-22T08:58:28;100678.56;;;21.22;70.98
43125;BME280;49182;50.788;7.318;2023-05-22T09:00:56;100686.88;;;21.40;71.82
43125;BME280;49182;50.788;7.318;2023-05-22T09:03:25;100679.06;;;21.58;71.93
43125;BME280;49182;50.788;7.318;2023-05-22T09:05:53;100671.63;;;21.73;71.59
43125;BME280;49182;50.788;7.318;2023-05-22T09:08:20;100675.59;;;21.91;70.63
43125;BME280;49182;50.788;7.318;2023-05-22T09:10:47;100675.00;;;22.02;69.53
43125;BME280;49182;50.788;7.318;2023-05-22T09:13:23;100680.38;;;22.22;68.92
43125;BME280;49182;50.788;7.318;2023-05-22T09:15:50;100685.94;;;22.27;69.06
43125;BME280;49182;50.788;7.318;2023-05-22T09:18:17;100670.84;;;22.26;68.74
43125;BME280;49182;50.788;7.318;2023-05-22T09:20:43;100669.78;;;22.46;69.06
43125;BME280;49182;50.788;7.318;2023-05-22T09:23:12;100671.38;;;22.60;67.19
43125;BME280;49182;50.788;7.318;2023-05-22T09:25:40;100673.25;;;22.53;66.28
43125;BME280;49182;50.788;7.318;2023-05-22T09:28:07;100670.97;;;22.64;66.27
43125;BME280;49182;50.788;7.318;2023-05-22T09:30:34;100675.31;;;22.65;66.77
43125;BME280;49182;50.788;7.318;2023-05-22T09:33:01;100669.28;;;22.82;65.75
43125;BME280;49182;50.788;7.318;2023-05-22T09:35:30;100664.91;;;22.88;66.15
43125;BME280;49182;50.788;7.318;2023-05-22T09:37:57;100664.22;;;22.99;65.75
43125;BME280;49182;50.788;7.318;2023-05-22T09:40:26;100676.09;;;22.78;63.40
43125;BME280;49182;50.788;7.318;2023-05-22T09:42:52;100679.63;;;22.66;63.39
43125;BME280;49182;50.788;7.318;2023-05-22T09:45:20;100674.88;;;22.74;64.37
43125;BME280;49182;50.788;7.318;2023-05-22T09:47:47;100686.25;;;22.83;64.07
43125;BME280;49182;50.788;7.318;2023-05-22T09:50:14;100687.50;;;22.67;63.33
43125;BME280;49182;50.788;7.318;2023-05-22T09:52:43;100674.25;;;22.66;63.00
43125;BME280;49182;50.788;7.318;2023-05-22T09:55:12;100667.84;;;22.73;64.62
43125;BME280;49182;50.788;7.318;2023-05-22T09:57:41;100666.41;;;22.77;64.31
43125;BME280;49182;50.788;7.318;2023-05-22T10:00:10;100672.09;;;23.01;63.31
43125;BME280;49182;50.788;7.318;2023-05-22T10:02:41;100674.81;;;22.94;63.47
43125;BME280;49182;50.788;7.318;2023-05-22T10:05:10;100667.19;;;22.84;62.56
43125;BME280;49182;50.788;7.318;2023-05-22T10:07:42;100674.50;;;22.51;64.29
43125;BME280;49182;50.788;7.318;2023-05-22T10:10:10;100678.41;;;22.68;64.07
43125;BME280;49182;50.788;7.318;2023-05-22T10:12:42;100679.59;;;22.85;65.04
43125;BME280;49182;50.788;7.318;2023-05-22T10:15:10;100677.91;;;22.97;63.91
43125;BME280;49182;50.788;7.318;2023-05-22T10:17:38;100667.88;;;23.18;63.62
43125;BME280;49182;50.788;7.318;2023-05-22T10:20:06;100678.81;;;23.23;62.99
43125;BME280;49182;50.788;7.318;2023-05-22T10:22:34;100669.88;;;23.29;62.19
43125;BME280;49182;50.788;7.318;2023-05-22T10:25:02;100668.31;;;23.46;61.53
43125;BME280;49182;50.788;7.318;2023-05-22T10:27:29;100667.56;;;23.39;61.24
43125;BME280;49182;50.788;7.318;2023-05-22T10:30:01;100664.53;;;23.60;60.87
43125;BME280;49182;50.788;7.318;2023-05-22T10:32:39;100668.84;;;23.68;61.47
43125;BME280;49182;50.788;7.318;2023-05-22T10:35:17;100674.59;;;23.71;60.42
43125;BME280;49182;50.788;7.318;2023-05-22T10:37:48;100681.09;;;23.64;60.18
43125;BME280;49182;50.788;7.318;2023-05-22T10:40:20;100674.94;;;23.57;59.81
43125;BME280;49182;50.788;7.318;2023-05-22T10:42:47;100676.66;;;23.76;60.22
43125;BME280;49182;50.788;7.318;2023-05-22T10:45:15;100669.53;;;23.88;59.17
43125;BME280;49182;50.788;7.318;2023-05-22T10:47:42;100674.47;;;23.91;59.56
43125;BME280;49182;50.788;7.318;2023-05-22T10:50:10;100677.09;;;23.98;59.69
43125;BME280;49182;50.788;7.318;2023-05-22T10:52:38;100686.06;;;23.67;59.07
43125;BME280;49182;50.788;7.318;2023-05-22T10:55:05;100674.84;;;23.95;59.51
43125;BME280;49182;50.788;7.318;2023-05-22T10:57:32;100671.28;;;24.01;58.19
43125;BME280;49182;50.788;7.318;2023-05-22T11:00:10;100683.16;;;23.93;59.09
43125;BME280;49182;50.788;7.318;2023-05-22T11:02:41;100682.81;;;23.83;58.36
43125;BME280;49182;50.788;7.318;2023-05-22T11:05:33;100670.63;;;23.81;58.61
43125;BME280;49182;50.788;7.318;2023-05-22T11:08:10;100670.25;;;23.70;59.12
43125;BME280;49182;50.788;7.318;2023-05-22T11:10:54;100673.25;;;23.87;59.71
43125;BME280;49182;50.788;7.318;2023-05-22T11:13:24;100677.75;;;23.68;57.82
43125;BME280;49182;50.788;7.318;2023-05-22T11:15:54;100675.56;;;23.84;58.23
43125;BME280;49182;50.788;7.318;2023-05-22T11:18:22;100663.63;;;23.98;58.03
43125;BME280;49182;50.788;7.318;2023-05-22T11:20:49;100670.09;;;24.15;58.05
43125;BME280;49182;50.788;7.318;2023-05-22T11:23:18;100668.56;;;24.26;57.87
43125;BME280;49182;50.788;7.318;2023-05-22T11:25:45;100672.44;;;24.36;58.20
43125;BME280;49182;50.788;7.318;2023-05-22T11:28:12;100665.06;;;24.25;56.99
43125;BME280;49182;50.788;7.318;2023-05-22T11:30:39;100668.69;;;24.37;58.31
43125;BME280;49182;50.788;7.318;2023-05-22T11:33:07;100664.66;;;23.97;57.82
43125;BME280;49182;50.788;7.318;2023-05-22T11:35:36;100657.78;;;23.76;58.16
43125;BME280;49182;50.788;7.318;2023-05-22T11:38:04;100660.75;;;23.93;58.14
43125;BME280;49182;50.788;7.318;2023-05-22T11:40:31;100654.81;;;23.84;57.07
43125;BME280;49182;50.788;7.318;2023-05-22T11:42:57;100626.53;;;23.68;57.84
43125;BME280;49182;50.788;7.318;2023-05-22T11:45:24;100650.66;;;23.88;57.37
43125;BME280;49182;50.788;7.318;2023-05-22T11:47:52;100650.34;;;23.71;58.28
43125;BME280;49182;50.788;7.318;2023-05-22T11:50:18;100660.91;;;23.73;58.03
43125;BME280;49182;50.788;7.318;2023-05-22T11:52:52;100629.75;;;23.77;58.59
43125;BME280;49182;50.788;7.318;2023-05-22T11:55:19;100646.59;;;23.97;58.28
43125;BME280;49182;50.788;7.318;2023-05-22T11:57:45;100637.31;;;23.93;58.21
43125;BME280;49182;50.788;7.318;2023-05-22T12:00:13;100638.25;;;24.05;57.42
43125;BME280;49182;50.788;7.318;2023-05-22T12:02:43;100632.53;;;24.13;57.73
43125;BME280;49182;50.788;7.318;2023-05-22T12:05:10;100620.03;;;24.01;56.38
43125;BME280;49182;50.788;7.318;2023-05-22T12:07:37;100626.06;;;24.21;56.83
43125;BME280;49182;50.788;7.318;2023-05-22T12:10:05;100621.59;;;24.33;56.41
43125;BME280;49182;50.788;7.318;2023-05-22T12:12:32;100639.97;;;24.43;56.24
43125;BME280;49182;50.788;7.318;2023-05-22T12:14:59;100619.28;;;24.37;56.87
43125;BME280;49182;50.788;7.318;2023-05-22T12:17:27;100631.13;;;24.54;57.22
43125;BME280;49182;50.788;7.318;2023-05-22T12:19:54;100623.38;;;24.57;56.42
43125;BME280;49182;50.788;7.318;2023-05-22T12:22:20;100635.34;;;24.50;55.54
43125;BME280;49182;50.788;7.318;2023-05-22T12:24:51;100630.38;;;24.65;55.96
43125;BME280;49182;50.788;7.318;2023-05-22T12:27:19;100646.78;;;24.64;54.48
43125;BME280;49182;50.788;7.318;2023-05-22T12:29:46;100622.66;;;24.69;55.18
43125;BME280;49182;50.788;7.318;2023-05-22T12:32:12;100614.59;;;24.80;54.61
43125;BME280;49182;50.788;7.318;2023-05-22T12:34:43;100622.47;;;24.64;54.90
43125;BME280;49182;50.788;7.318;2023-05-22T12:37:17;100625.88;;;24.41;55.75
43125;BME280;49182;50.788;7.318;2023-05-22T12:39:52;100627.66;;;24.65;55.10
43125;BME280;49182;50.788;7.318;2023-05-22T12:42:20;100636.81;;;24.64;55.01
43125;BME280;49182;50.788;7.318;2023-05-22T12:44:47;100619.63;;;24.77;54.98
43125;BME280;49182;50.788;7.318;2023-05-22T12:47:14;100630.06;;;24.73;54.43
43125;BME280;49182;50.788;7.318;2023-05-22T12:49:40;100615.13;;;24.71;54.65
43125;BME280;49182;50.788;7.318;2023-05-22T12:52:07;100632.78;;;24.73;53.39
43125;BME280;49182;50.788;7.318;2023-05-22T12:54:33;100617.66;;;25.02;53.86
43125;BME280;49182;50.788;7.318;2023-05-22T12:57:00;100619.13;;;25.16;54.21
43125;BME280;49182;50.788;7.318;2023-05-22T12:59:28;100627.50;;;25.26;54.15